Time;durP1;ratioP1;P1;durP2;ratioP2;P2;SDS_P1;SDS_P2;PMS_P1;PMS_P2;Temp;Humidity;BMP_temperature;BMP_pressure;BME280_temperature;BME280_humidity;BME280_pressure;Samples;Min_cycle;Max_cycle;Signal;HPM_P1;HPM_P2
2022/01/16 00:04:41;;;;;;;15.63;9.07;;;3.50;1.00;;;;;;5092815;28;20407;-74
2022/01/16 00:07:06;;;;;;;9.57;6.57;;;3.60;1.00;;;;;;5093261;28;20518;-75
2022/01/16 00:09:32;;;;;;;19.70;9.83;;;3.60;1.00;;;;;;5092387;28;20238;-74
2022/01/16 00:12:00;;;;;;;15.17;8.87;;;3.60;1.00;;;;;;5081599;28;20239;-75
2022/01/16 00:14:28;;;;;;;18.73;10.60;;;3.60;1.00;;;;;;5073299;28;20262;-74
2022/01/16 00:16:54;;;;;;;25.40;9.37;;;3.70;1.00;;;;;;5083638;28;20424;-75
2022/01/16 00:19:20;;;;;;;11.97;8.00;;;3.70;1.00;;;;;;5091846;28;20455;-74
2022/01/16 00:21:46;;;;;;;14.70;8.33;;;3.70;1.00;;;;;;5083802;28;20452;-75
2022/01/16 00:24:12;;;;;;;16.10;8.60;;;3.70;1.00;;;;;;5072377;28;20162;-75
2022/01/16 00:26:38;;;;;;;19.80;11.63;;;3.70;1.00;;;;;;5056153;28;20170;-74
2022/01/16 00:29:08;;;;;;;19.27;10.03;;;3.70;1.00;;;;;;5072160;28;20447;-74
2022/01/16 00:31:38;;;;;;;22.97;10.20;;;3.70;1.00;;;;;;5078675;28;20843;-74
2022/01/16 00:34:06;;;;;;;24.23;10.30;;;3.70;1.00;;;;;;5093227;28;20397;-76
2022/01/16 00:36:31;;;;;;;23.00;10.40;;;3.70;1.00;;;;;;5088633;28;20777;-76
2022/01/16 00:38:58;;;;;;;24.93;11.90;;;3.80;1.00;;;;;;5092531;28;20453;-76
2022/01/16 00:41:24;;;;;;;19.37;10.13;;;3.80;1.00;;;;;;5091356;28;20231;-76
2022/01/16 00:43:51;;;;;;;19.87;9.37;;;3.70;1.00;;;;;;5092851;28;20392;-76
2022/01/16 00:46:18;;;;;;;18.33;10.97;;;3.70;1.00;;;;;;5064909;28;20447;-73
2022/01/16 00:48:44;;;;;;;20.70;11.33;;;3.70;1.00;;;;;;5054064;28;20436;-74
2022/01/16 00:51:10;;;;;;;16.37;9.43;;;3.70;1.00;;;;;;5080785;28;20855;-75
2022/01/16 00:53:36;;;;;;;22.50;12.03;;;3.70;1.00;;;;;;5092875;28;20757;-74
2022/01/16 00:56:02;;;;;;;17.13;9.73;;;3.60;1.00;;;;;;5085549;28;20420;-74
2022/01/16 00:58:28;;;;;;;19.87;10.43;;;3.60;1.00;;;;;;5053755;28;20409;-78
2022/01/16 01:00:53;;;;;;;13.50;9.60;;;3.60;1.00;;;;;;5079776;28;20465;-75
2022/01/16 01:03:19;;;;;;;20.00;9.70;;;3.60;1.00;;;;;;5092705;28;20193;-74
2022/01/16 01:05:45;;;;;;;25.90;11.10;;;3.50;1.00;;;;;;5085664;28;20189;-75
2022/01/16 01:08:11;;;;;;;22.23;11.03;;;3.60;1.00;;;;;;5072346;28;20193;-76
2022/01/16 01:10:40;;;;;;;23.03;12.53;;;3.60;1.00;;;;;;5076588;28;20204;-75
2022/01/16 01:13:11;;;;;;;19.20;9.20;;;3.60;1.00;;;;;;5092804;28;20404;-74
2022/01/16 01:15:48;;;;;;;13.60;9.43;;;3.60;1.00;;;;;;5072976;28;20431;-75
2022/01/16 01:18:15;;;;;;;17.47;9.93;;;3.60;1.00;;;;;;5095520;28;20888;-76
2022/01/16 01:20:42;;;;;;;16.10;10.00;;;3.50;1.00;;;;;;5094546;28;20459;-75
2022/01/16 01:23:09;;;;;;;17.70;10.10;;;3.60;1.00;;;;;;5096325;28;20404;-75
2022/01/16 01:25:35;;;;;;;16.07;10.00;;;3.60;1.00;;;;;;5088745;28;20410;-74
2022/01/16 01:28:01;;;;;;;19.57;10.40;;;3.60;1.00;;;;;;5058296;28;20441;-74
2022/01/16 01:30:27;;;;;;;29.10;11.33;;;3.60;1.00;;;;;;5080313;28;20444;-74
2022/01/16 01:32:54;;;;;;;16.50;10.10;;;3.60;1.00;;;;;;5078267;28;20404;-74
2022/01/16 01:35:21;;;;;;;18.90;10.73;;;3.60;1.00;;;;;;5091041;28;20168;-75
2022/01/16 01:37:48;;;;;;;17.93;9.63;;;3.60;1.00;;;;;;5075613;28;20750;-76
2022/01/16 01:40:17;;;;;;;18.87;9.30;;;3.60;1.00;;;;;;5075641;28;20476;-74
2022/01/16 01:51:14;;;;;;;21.43;11.60;;;3.50;1.00;;;;;;5084214;28;20529;-75
2022/01/16 01:53:40;;;;;;;16.50;9.60;;;3.60;1.00;;;;;;5075044;28;20412;-74
2022/01/16 01:56:08;;;;;;;18.33;8.33;;;3.50;1.00;;;;;;5066702;28;20412;-75
2022/01/16 01:58:35;;;;;;;19.70;10.77;;;3.50;1.00;;;;;;5094596;28;20431;-75
2022/01/16 02:01:01;;;;;;;14.30;9.67;;;3.50;1.00;;;;;;5086656;28;20523;-75
2022/01/16 02:05:55;;;;;;;19.43;11.03;;;3.40;1.00;;;;;;5082193;28;20415;-75
2022/01/16 02:08:21;;;;;;;19.17;10.57;;;3.40;1.00;;;;;;5095280;28;20527;-77
2022/01/16 02:10:47;;;;;;;22.73;11.20;;;3.30;1.00;;;;;;5092892;28;20238;-75
2022/01/16 02:13:26;;;;;;;15.03;9.93;;;3.30;1.00;;;;;;5083196;28;20169;-75
2022/01/16 02:34:44;;;;;;;17.73;9.80;;;3.10;1.00;;;;;;5082823;28;20445;-75
2022/01/16 02:37:13;;;;;;;23.00;11.00;;;3.20;1.00;;;;;;5056832;28;20785;-74
2022/01/16 02:39:42;;;;;;;18.77;11.20;;;3.20;1.00;;;;;;5085941;28;20557;-74
2022/01/16 02:42:10;;;;;;;18.87;10.17;;;3.30;1.00;;;;;;5094807;28;20799;-74
2022/01/16 02:45:00;;;;;;;15.23;9.27;;;3.30;1.00;;;;;;5082866;28;20532;-75
2022/01/16 02:47:26;;;;;;;23.93;11.67;;;3.40;1.00;;;;;;5074441;28;20896;-76
2022/01/16 02:49:53;;;;;;;21.53;11.63;;;3.40;1.00;;;;;;5085214;28;20428;-76
2022/01/16 02:52:21;;;;;;;23.10;12.93;;;3.30;1.00;;;;;;5094602;28;20756;-76
2022/01/16 02:54:54;;;;;;;16.73;8.30;;;3.40;1.00;;;;;;5082672;28;20424;-76
2022/01/16 02:57:21;;;;;;;23.83;12.13;;;3.40;1.00;;;;;;5075242;28;20412;-74
2022/01/16 02:59:50;;;;;;;23.93;13.33;;;3.40;1.00;;;;;;5055537;28;20463;-75
2022/01/16 03:02:18;;;;;;;18.77;10.43;;;3.40;1.00;;;;;;5080483;28;20473;-75
2022/01/16 03:04:44;;;;;;;25.87;14.37;;;3.40;1.00;;;;;;5094423;28;20402;-74
2022/01/16 03:07:09;;;;;;;21.27;11.27;;;3.40;1.00;;;;;;5088364;28;20769;-75
2022/01/16 03:10:36;;;;;;;26.70;13.43;;;3.40;1.00;;;;;;5073201;28;20201;-75
2022/01/16 03:12:26;;;;;;;23.30;11.17;;;3.40;1.00;;;;;;5066630;28;20188;-74
2022/01/16 03:14:52;;;;;;;25.70;11.50;;;3.40;1.00;;;;;;5094179;28;20399;-75
2022/01/16 03:17:36;;;;;;;24.17;12.00;;;3.50;1.00;;;;;;5089166;28;20431;-76
2022/01/16 03:22:50;;;;;;;25.13;14.50;;;3.50;1.00;;;;;;5050561;28;20965;-74
2022/01/16 03:25:16;;;;;;;27.70;13.63;;;3.40;1.00;;;;;;5092929;28;20562;-75
2022/01/16 03:27:42;;;;;;;26.73;13.60;;;3.50;1.00;;;;;;5068893;28;20170;-74
2022/01/16 03:30:10;;;;;;;20.77;12.90;;;3.40;1.00;;;;;;5054970;28;20951;-75
2022/01/16 03:32:36;;;;;;;22.57;12.80;;;3.50;1.00;;;;;;5082396;28;20495;-75
2022/01/16 03:35:02;;;;;;;33.60;14.50;;;3.50;1.00;;;;;;5094171;28;20491;-75
2022/01/16 03:37:28;;;;;;;23.60;13.90;;;3.40;1.00;;;;;;5093039;28;20260;-74
2022/01/16 03:39:53;;;;;;;26.23;12.83;;;3.40;1.00;;;;;;5074443;28;21089;-74
2022/01/16 03:42:25;;;;;;;22.97;12.23;;;3.50;1.00;;;;;;5069841;28;20170;-74
2022/01/16 03:44:51;;;;;;;26.33;11.50;;;3.50;1.00;;;;;;5054558;28;20170;-74
2022/01/16 03:47:17;;;;;;;20.10;13.10;;;3.50;1.00;;;;;;5081372;28;20408;-75
2022/01/16 03:49:42;;;;;;;25.27;14.10;;;3.50;1.00;;;;;;5092626;28;20415;-74
2022/01/16 03:52:08;;;;;;;22.90;12.30;;;3.50;1.00;;;;;;5092787;28;20622;-74
2022/01/16 03:54:34;;;;;;;29.67;14.03;;;3.60;1.00;;;;;;5093514;28;20184;-75
2022/01/16 03:57:00;;;;;;;27.30;14.60;;;3.60;1.00;;;;;;5088396;28;20181;-75
2022/01/16 03:59:26;;;;;;;28.30;14.67;;;3.60;1.00;;;;;;5054106;28;20459;-75
2022/01/16 04:01:52;;;;;;;28.00;14.13;;;3.60;1.00;;;;;;5057778;28;20530;-75
2022/01/16 04:04:18;;;;;;;28.03;13.37;;;3.60;1.00;;;;;;5092354;28;20457;-75
2022/01/16 04:06:44;;;;;;;23.17;13.03;;;3.60;1.00;;;;;;5091947;28;20880;-74
2022/01/16 04:09:09;;;;;;;31.97;15.10;;;3.60;1.00;;;;;;5054448;28;20232;-75
2022/01/16 04:11:37;;;;;;;26.27;15.10;;;3.60;1.00;;;;;;5054931;28;20198;-75
2022/01/16 04:14:09;;;;;;;33.77;14.73;;;3.60;1.00;;;;;;5091787;28;20198;-74
2022/01/16 04:16:36;;;;;;;29.50;13.60;;;3.60;1.00;;;;;;5093185;28;20486;-75
2022/01/16 04:19:04;;;;;;;30.77;14.50;;;3.70;1.00;;;;;;5091559;28;20939;-74
2022/01/16 04:21:29;;;;;;;29.20;14.40;;;3.70;1.00;;;;;;5081055;28;20444;-75
2022/01/16 04:23:56;;;;;;;27.97;15.10;;;3.60;1.00;;;;;;5072142;28;20396;-75
2022/01/16 04:26:26;;;;;;;28.93;15.57;;;3.70;1.00;;;;;;5055904;28;20424;-74
2022/01/16 04:28:54;;;;;;;30.10;15.60;;;3.60;1.00;;;;;;5071829;28;20409;-74
2022/01/16 04:31:20;;;;;;;33.33;13.30;;;3.60;1.00;;;;;;5081118;28;20447;-75
2022/01/16 04:33:46;;;;;;;28.13;13.40;;;3.60;1.00;;;;;;5087506;28;20420;-75
2022/01/16 04:36:13;;;;;;;30.87;13.37;;;3.60;1.00;;;;;;5072834;28;20776;-74
2022/01/16 04:38:45;;;;;;;38.20;14.23;;;3.70;1.00;;;;;;5074826;28;20165;-75
2022/01/16 04:43:59;;;;;;;34.13;14.53;;;3.70;1.00;;;;;;5086728;28;20423;-76
2022/01/16 04:46:27;;;;;;;32.80;14.27;;;3.70;1.00;;;;;;5072811;28;20401;-75
2022/01/16 04:48:54;;;;;;;24.20;12.53;;;3.60;1.00;;;;;;5079298;28;20416;-74
2022/01/16 04:51:21;;;;;;;26.63;12.00;;;3.60;1.00;;;;;;5096461;28;20496;-75
2022/01/16 04:53:47;;;;;;;35.27;14.40;;;3.70;1.00;;;;;;5096262;28;20451;-74
2022/01/16 04:56:13;;;;;;;22.87;12.63;;;3.70;1.00;;;;;;5096760;28;20486;-74
2022/01/16 04:58:39;;;;;;;36.23;14.97;;;3.60;1.00;;;;;;5089838;28;20451;-75
2022/01/16 05:01:06;;;;;;;29.00;12.97;;;3.60;1.00;;;;;;5076556;28;20421;-74
2022/01/16 05:03:33;;;;;;;27.80;12.07;;;3.60;1.00;;;;;;5080100;28;20445;-74
2022/01/16 05:05:59;;;;;;;37.43;14.77;;;3.60;1.00;;;;;;5096643;28;20808;-75
2022/01/16 05:08:25;;;;;;;23.13;13.50;;;3.70;1.00;;;;;;5095726;28;20435;-74
2022/01/16 05:10:54;;;;;;;29.43;13.27;;;3.70;1.00;;;;;;5095808;28;20447;-76
2022/01/16 05:18:30;;;;;;;28.30;15.60;;;3.50;1.00;;;;;;5079345;28;20430;-77
2022/01/16 05:20:56;;;;;;;22.43;12.93;;;3.60;1.00;;;;;;5078123;28;20463;-75
2022/01/16 05:23:22;;;;;;;37.33;12.00;;;3.70;1.00;;;;;;5092929;28;20254;-77
2022/01/16 05:25:47;;;;;;;24.30;12.93;;;3.70;1.00;;;;;;5076177;28;20174;-74
2022/01/16 05:28:13;;;;;;;27.17;12.63;;;3.70;1.00;;;;;;5058914;28;20202;-76
2022/01/16 05:30:39;;;;;;;37.00;15.20;;;3.70;1.00;;;;;;5074898;28;20206;-76
2022/01/16 05:33:04;;;;;;;26.47;13.17;;;3.70;1.00;;;;;;5057981;28;20178;-75
2022/01/16 05:35:30;;;;;;;27.33;13.87;;;3.60;1.00;;;;;;5077027;28;20213;-76
2022/01/16 05:37:55;;;;;;;28.77;15.50;;;3.70;1.00;;;;;;5095282;28;20209;-76
2022/01/16 05:40:21;;;;;;;31.23;14.07;;;3.70;1.00;;;;;;5076925;28;20255;-76
2022/01/16 05:42:47;;;;;;;26.50;14.00;;;3.80;1.00;;;;;;5075744;28;20593;-76
2022/01/16 05:45:12;;;;;;;35.17;15.30;;;3.80;1.00;;;;;;5073145;28;20267;-75
2022/01/16 05:47:38;;;;;;;23.97;11.83;;;3.80;1.00;;;;;;5077749;28;20185;-74
2022/01/16 05:50:05;;;;;;;29.20;15.73;;;3.90;1.00;;;;;;5080849;28;20226;-74
2022/01/16 05:52:30;;;;;;;31.40;14.17;;;3.90;1.00;;;;;;5057527;28;20174;-74
2022/01/16 05:54:56;;;;;;;32.80;13.90;;;4.00;1.00;;;;;;5069037;28;20425;-75
2022/01/16 05:57:22;;;;;;;21.30;13.17;;;4.00;1.00;;;;;;5094947;28;20253;-74
2022/01/16 05:59:47;;;;;;;26.10;14.30;;;4.00;1.00;;;;;;5084432;28;20558;-74
2022/01/16 06:02:13;;;;;;;26.93;14.90;;;4.00;1.00;;;;;;5074196;28;20174;-74
2022/01/16 06:04:39;;;;;;;30.17;14.40;;;3.90;1.00;;;;;;5087105;28;20174;-74
2022/01/16 06:07:05;;;;;;;28.13;14.20;;;3.90;1.00;;;;;;5095603;28;20162;-74
2022/01/16 06:09:31;;;;;;;41.23;16.60;;;3.90;1.00;;;;;;5093665;28;20437;-74
2022/01/16 06:11:57;;;;;;;28.20;16.00;;;3.90;1.00;;;;;;5077288;28;20981;-75
2022/01/16 06:14:23;;;;;;;26.87;13.47;;;3.90;1.00;;;;;;5089114;28;20180;-75
2022/01/16 06:16:50;;;;;;;23.73;12.93;;;4.00;1.00;;;;;;5087582;28;20920;-74
2022/01/16 06:19:16;;;;;;;29.57;13.53;;;4.00;1.00;;;;;;5094302;28;20493;-74
2022/01/16 06:21:42;;;;;;;27.77;13.33;;;4.00;1.00;;;;;;5076285;28;20449;-74
2022/01/16 06:24:07;;;;;;;23.97;13.03;;;3.90;1.00;;;;;;5095571;28;20193;-75
2022/01/16 06:26:33;;;;;;;25.90;13.17;;;3.80;1.00;;;;;;5094699;28;20170;-74
2022/01/16 06:28:59;;;;;;;29.80;16.20;;;3.80;1.00;;;;;;5094314;28;20180;-75
2022/01/16 06:31:25;;;;;;;34.03;15.40;;;3.80;1.00;;;;;;5087178;28;20198;-74
2022/01/16 06:33:50;;;;;;;29.37;13.80;;;3.90;1.00;;;;;;5078587;28;20177;-75
2022/01/16 06:36:16;;;;;;;28.73;16.50;;;3.90;1.00;;;;;;5094772;28;20509;-75
2022/01/16 06:38:42;;;;;;;22.27;13.30;;;3.90;1.00;;;;;;5090539;28;20724;-74
2022/01/16 06:41:09;;;;;;;27.77;16.80;;;3.90;1.00;;;;;;5075032;28;20503;-86
2022/01/16 06:43:35;;;;;;;30.60;14.57;;;4.00;1.00;;;;;;5075748;28;20224;-75
2022/01/16 06:46:01;;;;;;;28.33;14.10;;;4.00;1.00;;;;;;5094542;28;20430;-88
2022/01/16 06:48:27;;;;;;;31.40;14.20;;;4.00;1.00;;;;;;5095001;28;20184;-87
2022/01/16 06:50:55;;;;;;;35.20;14.20;;;4.00;1.00;;;;;;5072860;28;20446;-78
2022/01/16 06:53:20;;;;;;;33.93;15.40;;;4.00;1.00;;;;;;5073939;28;20170;-75
2022/01/16 06:55:46;;;;;;;27.40;14.50;;;3.90;1.00;;;;;;5090773;28;20412;-77
2022/01/16 06:58:12;;;;;;;25.10;12.13;;;4.00;1.00;;;;;;5094580;28;20166;-74
2022/01/16 07:00:37;;;;;;;27.17;13.17;;;3.90;1.00;;;;;;5076686;28;20197;-74
2022/01/16 07:03:03;;;;;;;39.67;15.03;;;3.90;1.00;;;;;;5074206;28;20530;-76
2022/01/16 07:05:28;;;;;;;34.27;14.23;;;3.90;1.00;;;;;;5070256;28;20542;-74
2022/01/16 07:07:54;;;;;;;26.23;14.53;;;3.90;1.00;;;;;;5094189;28;20182;-74
2022/01/16 07:10:20;;;;;;;32.80;13.63;;;3.90;1.00;;;;;;5080614;28;20194;-73
2022/01/16 07:12:46;;;;;;;33.40;15.17;;;3.80;1.00;;;;;;5072848;28;20174;-74
2022/01/16 07:15:11;;;;;;;28.73;14.17;;;3.80;1.00;;;;;;5066053;28;20222;-74
2022/01/16 07:17:37;;;;;;;25.30;14.57;;;3.90;1.00;;;;;;5094149;28;20418;-73
2022/01/16 07:20:03;;;;;;;23.97;11.80;;;3.90;1.00;;;;;;5088602;28;20276;-75
2022/01/16 07:22:29;;;;;;;33.20;14.63;;;3.90;1.00;;;;;;5094130;28;20176;-73
2022/01/16 07:24:54;;;;;;;31.40;12.93;;;3.80;1.00;;;;;;5093321;28;20415;-75
2022/01/16 07:27:20;;;;;;;34.03;16.30;;;3.80;1.00;;;;;;5093891;28;20518;-77
2022/01/16 07:29:46;;;;;;;29.50;12.97;;;3.80;1.00;;;;;;5083979;28;20653;-73
2022/01/16 07:32:12;;;;;;;26.60;12.27;;;3.70;1.00;;;;;;5072829;28;20634;-76
2022/01/16 07:34:38;;;;;;;22.43;11.67;;;3.70;1.00;;;;;;5084495;28;20446;-77
2022/01/16 07:37:03;;;;;;;29.87;14.40;;;3.70;1.00;;;;;;5093958;28;20531;-77
2022/01/16 07:39:29;;;;;;;25.50;13.20;;;3.70;1.00;;;;;;5092024;28;20189;-78
2022/01/16 07:41:55;;;;;;;22.40;11.73;;;3.70;1.00;;;;;;5093697;28;20444;-76
2022/01/16 07:44:21;;;;;;;28.97;13.83;;;3.70;1.00;;;;;;5074448;28;20432;-76
2022/01/16 07:46:46;;;;;;;27.87;14.20;;;3.70;1.00;;;;;;5073463;28;20169;-75
2022/01/16 07:49:12;;;;;;;23.63;12.60;;;3.70;1.00;;;;;;5070961;28;20235;-75
2022/01/16 07:51:38;;;;;;;25.70;13.10;;;3.80;1.00;;;;;;5092988;28;20231;-78
2022/01/16 07:54:04;;;;;;;27.30;13.90;;;3.70;1.00;;;;;;5077628;28;20221;-76
2022/01/16 07:56:29;;;;;;;31.47;12.40;;;3.60;1.00;;;;;;5073571;28;20170;-77
2022/01/16 07:58:55;;;;;;;31.57;11.43;;;3.60;1.00;;;;;;5085253;28;20248;-76
2022/01/16 08:01:21;;;;;;;39.60;13.50;;;3.60;1.00;;;;;;5093379;28;20181;-75
2022/01/16 08:03:46;;;;;;;28.37;13.60;;;3.60;1.00;;;;;;5081740;28;20181;-77
2022/01/16 08:06:12;;;;;;;37.47;14.07;;;3.50;1.00;;;;;;5073176;28;20167;-77
2022/01/16 08:08:38;;;;;;;28.73;14.30;;;3.50;1.00;;;;;;5081438;28;20177;-75
2022/01/16 08:11:04;;;;;;;22.17;11.10;;;3.50;1.00;;;;;;5089234;28;20436;-74
2022/01/16 08:13:30;;;;;;;28.50;10.50;;;3.50;1.00;;;;;;5091873;28;20426;-76
2022/01/16 08:15:55;;;;;;;26.30;12.90;;;3.60;1.00;;;;;;5093149;28;20403;-76
2022/01/16 08:18:21;;;;;;;35.23;13.30;;;3.50;1.00;;;;;;5093263;28;20191;-79
2022/01/16 08:20:47;;;;;;;27.23;13.40;;;3.50;1.00;;;;;;5092327;28;20201;-73
2022/01/16 08:23:12;;;;;;;33.13;15.03;;;3.50;1.00;;;;;;5093140;28;20168;-75
2022/01/16 08:25:38;;;;;;;30.80;13.97;;;3.60;1.00;;;;;;5092146;28;20158;-74
2022/01/16 08:28:04;;;;;;;29.10;12.97;;;3.70;1.00;;;;;;5092816;28;20169;-75
2022/01/16 08:30:31;;;;;;;36.37;15.03;;;3.70;1.00;;;;;;5091857;28;20193;-75
2022/01/16 08:32:56;;;;;;;24.40;13.97;;;3.70;1.00;;;;;;5092778;28;20396;-75
2022/01/16 08:35:22;;;;;;;39.80;14.77;;;3.60;1.00;;;;;;5093103;28;20883;-76
2022/01/16 08:37:48;;;;;;;36.37;14.97;;;3.60;1.00;;;;;;5093007;28;20648;-73
2022/01/16 08:40:14;;;;;;;27.03;13.00;;;3.60;1.00;;;;;;5091924;28;20219;-76
2022/01/16 08:42:41;;;;;;;35.67;13.97;;;3.60;1.00;;;;;;5093050;28;20400;-77
2022/01/16 08:45:08;;;;;;;32.57;12.30;;;3.50;1.00;;;;;;5092993;28;20453;-76
2022/01/16 08:47:33;;;;;;;18.43;10.20;;;3.40;1.00;;;;;;5092998;28;20396;-76
2022/01/16 08:50:01;;;;;;;35.10;12.57;;;3.40;1.00;;;;;;5091865;28;20577;-77
2022/01/16 08:52:27;;;;;;;32.03;12.10;;;3.40;1.00;;;;;;5092045;28;20173;-75
2022/01/16 08:54:53;;;;;;;20.73;9.90;;;3.40;1.00;;;;;;5092841;28;20884;-75
2022/01/16 08:57:19;;;;;;;30.97;13.50;;;3.30;1.00;;;;;;5092747;28;20169;-76
2022/01/16 08:59:44;;;;;;;24.57;13.33;;;3.30;1.00;;;;;;5091849;28;20205;-77
2022/01/16 09:02:10;;;;;;;42.63;13.30;;;3.30;1.00;;;;;;5092776;28;20158;-75
2022/01/16 09:04:36;;;;;;;34.73;14.20;;;3.30;1.00;;;;;;5092484;28;20192;-77
2022/01/16 09:07:02;;;;;;;26.97;11.70;;;3.40;1.00;;;;;;5092926;28;20392;-75
2022/01/16 09:09:28;;;;;;;38.93;15.00;;;3.40;1.00;;;;;;5090855;28;20231;-77
2022/01/16 09:11:53;;;;;;;21.87;12.50;;;3.40;1.00;;;;;;5092563;28;20908;-76
2022/01/16 09:14:19;;;;;;;33.33;12.90;;;3.40;1.00;;;;;;5092754;28;20632;-76
2022/01/16 09:16:44;;;;;;;29.70;12.27;;;3.40;1.00;;;;;;5092711;28;20184;-77
2022/01/16 09:19:10;;;;;;;34.43;16.40;;;3.40;1.00;;;;;;5073652;28;20280;-77
2022/01/16 09:21:36;;;;;;;40.97;13.43;;;3.40;1.00;;;;;;5092530;28;20550;-77
2022/01/16 09:24:02;;;;;;;35.10;13.70;;;3.40;1.00;;;;;;5092552;28;20611;-77
2022/01/16 09:26:28;;;;;;;23.83;11.27;;;3.50;1.00;;;;;;5091793;28;20251;-76
2022/01/16 09:28:53;;;;;;;41.77;14.20;;;3.40;1.00;;;;;;5091493;28;20170;-75
2022/01/16 09:31:19;;;;;;;40.00;14.27;;;3.40;1.00;;;;;;5092455;28;20676;-74
2022/01/16 09:33:45;;;;;;;26.80;12.90;;;3.50;1.00;;;;;;5092601;28;20626;-75
2022/01/16 09:36:11;;;;;;;26.77;11.07;;;3.50;1.00;;;;;;5093581;28;20173;-76
2022/01/16 09:38:37;;;;;;;28.33;13.53;;;3.60;1.00;;;;;;5095245;28;20560;-77
2022/01/16 09:41:05;;;;;;;29.27;13.57;;;3.60;1.00;;;;;;5095911;28;20827;-74
2022/01/16 09:43:32;;;;;;;21.70;11.60;;;3.50;1.00;;;;;;5096026;28;20830;-77
2022/01/16 09:45:58;;;;;;;41.17;13.07;;;3.50;1.00;;;;;;5095604;28;20392;-76
2022/01/16 09:48:24;;;;;;;39.00;13.37;;;3.60;1.00;;;;;;5095032;28;20396;-76
2022/01/16 09:50:50;;;;;;;31.50;12.53;;;3.50;1.00;;;;;;5076771;28;20424;-76
2022/01/16 09:53:16;;;;;;;24.63;12.60;;;3.60;1.00;;;;;;5095570;28;20900;-77
2022/01/16 09:55:42;;;;;;;36.77;13.00;;;3.60;1.00;;;;;;5095811;28;20170;-77
2022/01/16 09:58:08;;;;;;;31.80;12.50;;;3.60;1.00;;;;;;5095543;28;20410;-75
2022/01/16 10:00:34;;;;;;;35.83;13.13;;;3.60;1.00;;;;;;5094649;28;20462;-75
2022/01/16 10:02:59;;;;;;;30.20;11.37;;;3.60;1.00;;;;;;5095322;28;20170;-77
2022/01/16 10:05:27;;;;;;;36.13;11.90;;;3.60;1.00;;;;;;5095061;28;20395;-75
2022/01/16 10:07:54;;;;;;;27.50;9.87;;;3.50;1.00;;;;;;5095478;28;20185;-74
2022/01/16 10:10:25;;;;;;;34.13;11.67;;;3.60;1.00;;;;;;5090593;28;20436;-75
2022/01/16 10:12:54;;;;;;;27.80;13.60;;;3.60;1.00;;;;;;5095251;28;20420;-77
2022/01/16 10:15:21;;;;;;;29.03;14.33;;;3.50;1.00;;;;;;5094248;28;20423;-76
2022/01/16 10:17:51;;;;;;;30.70;13.27;;;3.60;1.00;;;;;;5094751;28;20445;-77
2022/01/16 10:20:17;;;;;;;27.30;11.70;;;3.60;1.00;;;;;;5093953;28;20451;-78
2022/01/16 10:22:53;;;;;;;37.10;13.47;;;3.60;1.00;;;;;;5092745;28;20415;-75
2022/01/16 10:25:41;;;;;;;15.27;10.20;;;3.80;1.00;;;;;;5095243;28;20771;-74
2022/01/16 10:28:19;;;;;;;27.57;12.87;;;3.60;1.00;;;;;;5094105;28;20535;-76
2022/01/16 10:30:48;;;;;;;22.13;12.10;;;3.50;1.00;;;;;;5093357;28;20451;-77
2022/01/16 10:33:16;;;;;;;19.20;9.67;;;3.50;1.00;;;;;;5094723;28;20430;-74
2022/01/16 10:35:43;;;;;;;27.43;11.67;;;3.70;1.00;;;;;;5090342;28;20416;-75
2022/01/16 10:38:20;;;;;;;35.53;14.17;;;3.80;1.00;;;;;;5093924;28;20426;-74
2022/01/16 10:40:53;;;;;;;34.10;12.77;;;3.90;1.00;;;;;;5089080;28;20456;-76
2022/01/16 10:43:21;;;;;;;32.77;13.47;;;3.90;1.00;;;;;;5086665;28;20419;-73
2022/01/16 10:45:51;;;;;;;17.77;9.70;;;3.80;1.00;;;;;;5081526;28;20470;-72
2022/01/16 10:48:23;;;;;;;21.20;8.90;;;3.80;1.00;;;;;;5086622;28;20449;-74
2022/01/16 10:50:51;;;;;;;23.77;10.67;;;3.80;1.00;;;;;;5073243;28;20515;-72
2022/01/16 10:53:19;;;;;;;25.57;10.70;;;3.80;1.00;;;;;;5084524;28;20423;-74
2022/01/16 10:55:54;;;;;;;23.50;11.10;;;3.90;1.00;;;;;;5094540;28;20400;-73
2022/01/16 10:58:24;;;;;;;23.87;12.20;;;3.80;1.00;;;;;;5093468;28;20411;-74
2022/01/16 11:01:00;;;;;;;23.20;11.40;;;3.70;1.00;;;;;;5093004;28;20474;-73
2022/01/16 11:03:29;;;;;;;31.30;10.07;;;3.80;1.00;;;;;;5091839;28;20529;-76
2022/01/16 11:05:55;;;;;;;28.60;12.97;;;3.80;1.00;;;;;;5093603;28;20412;-76
2022/01/16 11:08:25;;;;;;;31.03;14.30;;;3.80;1.00;;;;;;5093151;28;20439;-79
2022/01/16 11:10:54;;;;;;;33.97;12.73;;;3.80;1.00;;;;;;5093244;28;20439;-74
2022/01/16 11:13:22;;;;;;;33.57;14.30;;;3.90;1.00;;;;;;5081045;28;20497;-74
2022/01/16 11:15:50;;;;;;;21.70;12.20;;;3.90;1.00;;;;;;5094254;28;20408;-73
2022/01/16 11:18:17;;;;;;;26.93;11.20;;;4.00;1.00;;;;;;5093670;28;20409;-74
2022/01/16 11:20:52;;;;;;;31.63;12.63;;;3.90;1.00;;;;;;5091890;28;20494;-73
2022/01/16 11:23:33;;;;;;;24.57;11.83;;;3.90;1.00;;;;;;5093227;28;20441;-76
2022/01/16 11:26:06;;;;;;;27.10;14.80;;;4.00;1.00;;;;;;5091408;28;20428;-75
2022/01/16 11:28:33;;;;;;;35.37;13.90;;;4.00;1.00;;;;;;5092101;28;20477;-73
2022/01/16 11:31:10;;;;;;;28.43;11.87;;;4.00;1.00;;;;;;5092911;28;20780;-73
2022/01/16 11:33:37;;;;;;;28.00;12.20;;;4.10;1.00;;;;;;5093836;28;20418;-76
2022/01/16 11:36:04;;;;;;;23.60;13.07;;;4.10;1.00;;;;;;5081927;28;20417;-73
2022/01/16 11:38:51;;;;;;;37.33;13.70;;;4.10;1.00;;;;;;5072272;28;20408;-78
2022/01/16 11:41:24;;;;;;;30.70;11.93;;;4.10;1.00;;;;;;5068075;28;20439;-74
2022/01/16 11:43:54;;;;;;;46.43;15.33;;;4.20;1.00;;;;;;5087711;28;20466;-72
2022/01/16 11:46:22;;;;;;;34.37;15.63;;;4.10;1.00;;;;;;5073173;28;20397;-73
2022/01/16 11:48:53;;;;;;;36.17;12.30;;;4.20;1.00;;;;;;5077022;28;20408;-74
2022/01/16 11:51:40;;;;;;;34.90;14.70;;;4.30;1.00;;;;;;5092601;28;20822;-74
2022/01/16 11:54:13;;;;;;;36.50;14.87;;;4.30;1.00;;;;;;5091599;28;20415;-78
2022/01/16 11:56:41;;;;;;;26.63;13.43;;;4.30;1.00;;;;;;5091763;28;20776;-74
2022/01/16 11:59:35;;;;;;;35.23;13.20;;;4.30;1.00;;;;;;5090233;28;20506;-75
2022/01/16 12:02:02;;;;;;;30.63;12.27;;;4.40;1.00;;;;;;5092509;28;20442;-76
2022/01/16 12:04:31;;;;;;;35.50;16.10;;;4.40;1.00;;;;;;5093441;28;20416;-71
2022/01/16 12:07:13;;;;;;;25.13;12.77;;;4.50;1.00;;;;;;5092593;28;20485;-77
2022/01/16 12:12:13;;;;;;;42.97;16.80;;;4.50;1.00;;;;;;5073308;28;20415;-75
2022/01/16 12:15:07;;;;;;;34.37;13.73;;;4.60;1.00;;;;;;5072587;28;20393;-77
2022/01/16 12:17:33;;;;;;;41.93;16.57;;;4.60;1.00;;;;;;5073608;28;20403;-75
2022/01/16 12:20:14;;;;;;;37.27;14.87;;;4.70;1.00;;;;;;5090919;28;20963;-72
2022/01/16 12:22:47;;;;;;;36.33;16.63;;;4.70;1.00;;;;;;5091850;28;20174;-72
2022/01/16 12:25:31;;;;;;;38.83;15.40;;;4.70;1.00;;;;;;5081308;28;20411;-74
2022/01/16 12:28:13;;;;;;;42.60;17.47;;;4.80;1.00;;;;;;5091559;28;20912;-74
2022/01/16 12:30:48;;;;;;;41.27;16.93;;;4.80;1.00;;;;;;5091032;28;20466;-77
2022/01/16 12:33:28;;;;;;;41.73;19.13;;;4.80;1.00;;;;;;5091496;28;20920;-74
2022/01/16 12:35:55;;;;;;;43.63;19.73;;;4.90;1.00;;;;;;5092634;28;20424;-72
2022/01/16 12:38:51;;;;;;;43.63;19.73;;;5.00;1.00;;;;;;5091939;28;20467;-75
2022/01/16 12:41:21;;;;;;;31.50;14.30;;;5.00;1.00;;;;;;5091815;28;20453;-72
2022/01/16 12:43:51;;;;;;;44.57;19.90;;;5.10;1.00;;;;;;5085909;28;20411;-77
2022/01/16 12:46:25;;;;;;;41.20;18.30;;;5.10;1.00;;;;;;5091038;28;20404;-75
2022/01/16 12:48:53;;;;;;;41.73;17.77;;;5.10;1.00;;;;;;5090523;28;20411;-76
2022/01/16 12:51:34;;;;;;;31.07;17.60;;;5.20;1.00;;;;;;5091187;28;20563;-74
2022/01/16 12:54:11;;;;;;;33.00;16.67;;;5.20;1.00;;;;;;5091695;28;20433;-71
2022/01/16 12:56:46;;;;;;;41.80;19.50;;;5.20;1.00;;;;;;5093045;28;20802;-71
2022/01/16 12:59:15;;;;;;;46.27;20.10;;;5.30;1.00;;;;;;5091222;28;20481;-77
2022/01/16 13:01:46;;;;;;;36.83;18.57;;;5.30;1.00;;;;;;5092425;28;20466;-74
2022/01/16 13:04:37;;;;;;;57.93;20.93;;;5.20;1.00;;;;;;5081526;28;20435;-74
2022/01/16 13:07:10;;;;;;;40.63;17.43;;;5.30;1.00;;;;;;5072793;28;20454;-77
2022/01/16 13:09:36;;;;;;;33.20;16.73;;;5.30;1.00;;;;;;5086906;28;20442;-78
2022/01/16 13:12:04;;;;;;;42.73;16.70;;;5.30;1.00;;;;;;5093873;28;20434;-75
2022/01/16 13:14:37;;;;;;;38.33;17.60;;;5.30;1.00;;;;;;5087546;28;20411;-77
2022/01/16 13:17:08;;;;;;;42.17;16.97;;;5.40;1.00;;;;;;5092797;28;20768;-74
2022/01/16 13:19:57;;;;;;;40.80;16.47;;;5.40;1.00;;;;;;5076864;28;20801;-74
2022/01/16 13:22:30;;;;;;;35.93;17.40;;;5.40;1.00;;;;;;5087112;28;20411;-73
2022/01/16 13:25:03;;;;;;;37.80;16.33;;;5.50;1.00;;;;;;5093966;28;20399;-77
2022/01/16 13:27:37;;;;;;;26.23;13.43;;;5.50;1.00;;;;;;5095171;28;20413;-77
2022/01/16 13:30:13;;;;;;;42.87;16.17;;;5.60;1.00;;;;;;5093130;28;20427;-77
2022/01/16 13:32:40;;;;;;;27.73;15.10;;;5.60;1.00;;;;;;5084439;28;20809;-73
2022/01/16 13:35:19;;;;;;;34.53;15.80;;;5.60;1.00;;;;;;5075793;28;20781;-76
2022/01/16 13:37:47;;;;;;;34.70;17.37;;;5.60;1.00;;;;;;5087470;28;20508;-77
2022/01/16 13:40:15;;;;;;;34.27;15.37;;;5.70;1.00;;;;;;5094914;28;20462;-73